createdAt,value
2023-02-17T00:02:01.736Z,4.75
2023-02-17T00:07:04.237Z,4.78
2023-02-17T00:12:07.657Z,4.77
2023-02-17T00:17:11.716Z,4.75
2023-02-17T00:22:17.117Z,4.76
2023-02-17T00:27:20.167Z,4.78
2023-02-17T00:32:22.649Z,4.79
2023-02-17T00:37:25.677Z,4.80
2023-02-17T00:42:28.195Z,4.83
2023-02-17T00:47:30.869Z,4.85
2023-02-17T00:52:33.558Z,4.84
2023-02-17T00:57:36.126Z,4.87
2023-02-17T01:09:36.725Z,4.89
2023-02-17T01:14:39.536Z,4.85
2023-02-17T01:19:42.083Z,4.83
2023-02-17T01:24:44.613Z,4.82
2023-02-17T01:29:47.330Z,4.85
2023-02-17T01:34:50.159Z,4.86
2023-02-17T01:39:52.708Z,4.86
2023-02-17T01:45:01.018Z,4.84
2023-02-17T01:50:03.736Z,4.85
2023-02-17T01:55:11.249Z,4.88
2023-02-17T02:00:14.843Z,4.90
2023-02-17T02:05:20.102Z,4.89
2023-02-17T02:10:22.694Z,4.92
2023-02-17T02:15:31.818Z,4.97
2023-02-17T02:20:34.423Z,5.03
2023-02-17T02:25:40.968Z,5.07
2023-02-17T02:30:49.286Z,5.09
2023-02-17T02:36:01.756Z,5.10
2023-02-17T02:41:10.685Z,5.09
2023-02-17T02:46:13.201Z,5.13
2023-02-17T02:51:25.919Z,5.11
2023-02-17T02:56:33.611Z,5.13
2023-02-17T03:01:36.078Z,5.15
2023-02-17T03:06:47.748Z,5.17
2023-02-17T03:11:51.428Z,5.19
2023-02-17T03:16:54.296Z,5.21
2023-02-17T03:22:06.337Z,5.21
2023-02-17T03:27:08.924Z,5.24
2023-02-17T03:32:11.976Z,5.29
2023-02-17T03:37:14.731Z,5.28
2023-02-17T03:42:17.233Z,5.29
2023-02-17T03:47:19.725Z,5.31
2023-02-17T03:52:22.245Z,5.32
2023-02-17T03:57:24.770Z,5.35
2023-02-17T04:02:27.299Z,5.35
2023-02-17T04:07:29.902Z,5.32
2023-02-17T04:12:32.387Z,5.32
2023-02-17T04:17:37.810Z,5.32
2023-02-17T04:22:40.349Z,5.33
2023-02-17T04:27:42.879Z,5.29
2023-02-17T04:32:45.350Z,5.30
2023-02-17T04:37:48.017Z,5.32
2023-02-17T04:42:50.630Z,5.33
2023-02-17T04:47:53.138Z,5.31
2023-02-17T04:52:55.683Z,5.27
2023-02-17T04:57:58.182Z,5.23
2023-02-17T05:03:00.662Z,5.22
2023-02-17T05:08:03.696Z,5.24
2023-02-17T05:13:06.201Z,5.28
2023-02-17T05:18:08.704Z,5.29
2023-02-17T05:23:11.207Z,5.25
2023-02-17T05:28:13.766Z,5.26
2023-02-17T05:33:16.539Z,5.26
2023-02-17T05:38:19.148Z,5.22
2023-02-17T05:43:21.647Z,5.19
2023-02-17T05:48:24.142Z,5.21
2023-02-17T05:53:27.234Z,5.19
2023-02-17T05:58:30.392Z,5.17
2023-02-17T06:03:33.441Z,5.14
2023-02-17T06:08:36.650Z,5.13
2023-02-17T06:13:39.161Z,5.16
2023-02-17T06:18:41.677Z,5.18
2023-02-17T06:23:44.197Z,5.22
2023-02-17T06:28:46.744Z,5.20
2023-02-17T06:33:49.216Z,5.21
2023-02-17T06:38:51.801Z,5.24
2023-02-17T06:43:54.282Z,5.28
2023-02-17T06:48:56.977Z,5.32
2023-02-17T06:54:00.363Z,5.31
2023-02-17T06:59:03.514Z,5.29
2023-02-17T07:04:06.219Z,5.32
2023-02-17T07:09:11.363Z,5.32
2023-02-17T07:14:13.888Z,5.33
2023-02-17T07:19:16.578Z,5.37
2023-02-17T07:24:19.130Z,5.39
2023-02-17T07:29:22.954Z,5.40
2023-02-17T07:34:25.618Z,5.44
2023-02-17T07:39:28.116Z,5.51
2023-02-17T07:44:30.638Z,5.55
2023-02-17T07:49:33.155Z,5.61
2023-02-17T07:54:35.644Z,5.60
2023-02-17T07:59:38.121Z,5.59
2023-02-17T08:04:40.696Z,5.62
2023-02-17T08:09:46.227Z,5.72
2023-02-17T08:14:48.745Z,5.85
2023-02-17T08:19:51.264Z,5.96
2023-02-17T08:24:53.818Z,6.04
2023-02-17T08:29:56.636Z,6.11
2023-02-17T08:34:59.239Z,6.22
2023-02-17T08:40:02.160Z,6.34
2023-02-17T08:45:07.715Z,6.42
2023-02-17T08:50:15.958Z,6.49
2023-02-17T08:55:21.085Z,6.50
2023-02-17T09:00:23.868Z,6.54
2023-02-17T09:05:26.792Z,6.54
2023-02-17T09:10:34.435Z,6.57
2023-02-17T09:15:42.526Z,6.68
2023-02-17T09:20:45.617Z,6.84
2023-02-17T09:25:48.172Z,6.89
2023-02-17T09:30:53.356Z,6.90
2023-02-17T09:35:55.953Z,6.80
2023-02-17T09:41:06.525Z,6.79
2023-02-17T09:46:18.300Z,6.93
2023-02-17T09:51:29.156Z,7.09
2023-02-17T09:56:36.858Z,7.28
2023-02-17T10:01:40.960Z,7.32
2023-02-17T10:06:59.518Z,7.34
2023-02-17T10:12:09.741Z,7.41
2023-02-17T10:17:14.311Z,7.40
2023-02-17T10:22:55.071Z,7.24
2023-02-17T10:28:03.589Z,7.02
2023-02-17T10:33:30.767Z,7.00
2023-02-17T10:38:49.223Z,7.09
2023-02-17T10:43:51.940Z,7.11
2023-02-17T10:48:59.247Z,7.06
2023-02-17T10:54:11.506Z,7.00
2023-02-17T10:59:15.953Z,6.94
2023-02-17T11:04:18.494Z,6.82
2023-02-17T11:09:28.558Z,6.82
2023-02-17T11:14:33.245Z,6.91
2023-02-17T11:19:35.948Z,7.12
2023-02-17T11:24:38.650Z,7.30
2023-02-17T11:29:41.134Z,7.42
2023-02-17T11:34:44.350Z,7.36
2023-02-17T11:39:53.408Z,7.23
2023-02-17T11:44:58.305Z,7.18
2023-02-17T11:50:06.653Z,7.07
2023-02-17T11:55:17.899Z,7.02
2023-02-17T12:00:29.862Z,6.94
2023-02-17T12:05:42.617Z,6.92
2023-02-17T12:10:50.970Z,6.93
2023-02-17T12:15:59.317Z,6.91
2023-02-17T12:21:03.796Z,6.88
2023-02-17T12:26:16.582Z,6.85
2023-02-17T12:31:23.073Z,6.84
2023-02-17T12:36:33.989Z,6.89
2023-02-17T12:41:41.237Z,6.92
2023-02-17T12:46:49.291Z,6.85
2023-02-17T12:51:58.908Z,6.79
2023-02-17T12:57:01.333Z,6.75
2023-02-17T13:02:09.625Z,6.74
2023-02-17T13:07:16.340Z,6.74
2023-02-17T13:12:24.453Z,6.75
2023-02-17T13:17:28.776Z,6.80
2023-02-17T13:22:31.417Z,6.75
2023-02-17T13:27:37.285Z,6.72
2023-02-17T13:32:39.821Z,6.73
2023-02-17T13:37:46.027Z,6.76
2023-02-17T13:42:50.935Z,6.77
2023-02-17T13:47:56.540Z,6.77
2023-02-17T13:53:06.034Z,6.77
2023-02-17T13:58:11.156Z,6.76
2023-02-17T14:03:19.478Z,6.74
2023-02-17T14:08:27.816Z,6.77
2023-02-17T14:13:32.899Z,6.77
2023-02-17T14:18:42.950Z,6.75
2023-02-17T14:23:51.143Z,6.75
2023-02-17T14:28:56.319Z,6.78
2023-02-17T14:34:02.786Z,6.82
2023-02-17T14:39:08.239Z,6.86
2023-02-17T14:44:10.846Z,6.88
2023-02-17T14:49:13.400Z,6.89
2023-02-17T14:54:18.048Z,6.90
2023-02-17T14:59:20.604Z,6.87
2023-02-17T15:04:23.169Z,6.84
2023-02-17T15:09:30.252Z,6.83
2023-02-17T15:14:32.740Z,6.84
2023-02-17T15:19:35.596Z,6.85
2023-02-17T15:24:39.078Z,6.87
2023-02-17T15:29:41.639Z,6.89
2023-02-17T15:34:45.247Z,6.90
2023-02-17T15:39:47.782Z,6.92
2023-02-17T15:44:50.721Z,6.94
2023-02-17T15:49:53.431Z,6.96
2023-02-17T15:54:55.919Z,6.97
2023-02-17T15:59:58.464Z,6.98
2023-02-17T16:05:00.951Z,6.99
2023-02-17T16:10:04.868Z,6.97
2023-02-17T16:15:13.548Z,6.98
2023-02-17T16:20:19.593Z,7.00
2023-02-17T16:25:24.377Z,7.02
2023-02-17T16:30:31.486Z,7.04
2023-02-17T16:35:34.120Z,7.04
2023-02-17T16:40:40.170Z,7.06
2023-02-17T16:45:48.063Z,7.10
2023-02-17T16:50:50.697Z,7.15
2023-02-17T16:55:55.248Z,7.20
2023-02-17T17:00:57.792Z,7.25
2023-02-17T17:06:02.062Z,7.30
2023-02-17T17:11:04.695Z,7.34
2023-02-17T17:16:13.657Z,7.37
2023-02-17T17:21:18.654Z,7.37
2023-02-17T17:26:28.378Z,7.41
2023-02-17T17:31:31.031Z,7.46
2023-02-17T17:36:37.638Z,7.50
2023-02-17T17:41:40.392Z,7.55
2023-02-17T17:46:42.941Z,7.62
2023-02-17T17:51:45.704Z,7.68
2023-02-17T17:56:48.191Z,7.76
2023-02-17T18:01:50.746Z,7.83
2023-02-17T18:06:55.608Z,7.89
2023-02-17T18:12:00.358Z,7.98
2023-02-17T18:17:05.724Z,8.05
2023-02-17T18:22:08.267Z,8.12
2023-02-17T18:27:10.732Z,8.20
2023-02-17T18:32:13.388Z,8.25
2023-02-17T18:37:15.955Z,8.30
2023-02-17T18:42:18.704Z,8.37
2023-02-17T18:47:21.214Z,8.42
2023-02-17T18:52:23.746Z,8.47
2023-02-17T18:57:26.245Z,8.52
2023-02-17T19:02:28.783Z,8.56
2023-02-17T19:07:31.407Z,8.61
2023-02-17T19:12:34.254Z,8.66
2023-02-17T19:17:36.790Z,8.72
2023-02-17T19:22:39.785Z,8.78
2023-02-17T19:27:42.306Z,8.83
2023-02-17T19:32:44.857Z,8.87
2023-02-17T19:37:47.443Z,8.91
2023-02-17T19:42:50.253Z,8.93
2023-02-17T19:47:52.776Z,8.94
2023-02-17T19:52:57.863Z,8.95
2023-02-17T19:58:00.317Z,8.97
2023-02-17T20:03:03.200Z,8.97
2023-02-17T20:08:06.176Z,8.87
2023-02-17T20:13:08.679Z,8.70
2023-02-17T20:18:11.161Z,8.54
2023-02-17T20:23:15.626Z,8.39
2023-02-17T20:28:18.330Z,8.22
2023-02-17T20:33:20.804Z,8.13
2023-02-17T20:38:23.366Z,8.08
2023-02-17T20:43:26.605Z,8.04
2023-02-17T20:48:29.324Z,7.98
2023-02-17T20:53:31.796Z,7.86
2023-02-17T20:58:34.281Z,7.67
2023-02-17T21:03:37.491Z,7.50
2023-02-17T21:08:40.012Z,7.32
2023-02-17T21:13:42.530Z,7.13
2023-02-17T21:18:46.872Z,6.98
2023-02-17T21:24:06.252Z,6.92
2023-02-17T21:29:08.886Z,6.77
2023-02-17T21:34:11.396Z,6.59
2023-02-17T21:39:13.955Z,6.46
2023-02-17T21:44:19.419Z,6.41
2023-02-17T21:49:23.222Z,6.41
2023-02-17T21:54:25.814Z,6.43
2023-02-17T21:59:28.435Z,6.43
2023-02-17T22:04:31.072Z,6.45
2023-02-17T22:09:33.636Z,6.44
2023-02-17T22:14:36.162Z,6.44
2023-02-17T22:19:38.647Z,6.44
2023-02-17T22:24:43.670Z,6.44
2023-02-17T22:29:46.294Z,6.42
2023-02-17T22:34:48.768Z,6.44
2023-02-17T22:39:53.703Z,6.44
2023-02-17T22:44:56.255Z,6.42
2023-02-17T22:50:38.791Z,6.43
2023-02-17T22:55:41.304Z,6.46
2023-02-17T23:00:43.796Z,6.47
2023-02-17T23:05:46.793Z,6.48
2023-02-17T23:10:49.272Z,6.43
2023-02-17T23:15:51.761Z,6.35
2023-02-17T23:20:54.866Z,6.24
2023-02-17T23:25:57.408Z,6.12
2023-02-17T23:30:59.954Z,6.04
2023-02-17T23:36:05.741Z,5.95
2023-02-17T23:41:08.365Z,5.88
2023-02-17T23:46:11.305Z,5.86
2023-02-17T23:51:17.012Z,5.84
2023-02-17T23:56:24.792Z,5.83
